^^

Nearby METAR Reports


EGAC - Belfast Harbour, United Kingdom
Distance from station: W 8mi, 13km
Updated: 01/12/2022 08:50
Overcast
Overcast
space Wind from S
Wind: S 5 mph , 7 km/h
Temperature: 9°C
Wind Chill: 8°C
Dew Point: 8°C
Humidity: 94%
Barometer: 1026 hPa
Clouds: Overcast
Visibility: 6 miles , 10 km
Cloud details: Few Clouds 610 m
Overcast 762 m
2022/12/01 08:50 EGAC 010850Z AUTO 19004KT 9999 FEW020 OVC025 09/08 Q1026
EGAA - Belfast/Aldergro, United Kingdom
Distance from station: W 22mi, 35km
Updated: 01/12/2022 08:50
Mostly cloudy
Mostly cloudy
space Wind from S
Wind: S 9 mph , 15 km/h
Temperature: 9°C
Wind Chill: 7°C
Dew Point: 8°C
Humidity: 94%
Barometer: 1026 hPa
Clouds: Mostly cloudy
Visibility: 6 miles , 10 km
Cloud details: Mostly cloudy 640 m
2022/12/01 08:50 EGAA 010850Z AUTO 19008KT 9999 BKN021 09/08 Q1026
 
EGNS - Isle Of Man/Rona, United Kingdom
Distance from station: SE 57mi, 91km
Updated: 01/12/2022 08:50
Overcast
Overcast
space Wind from S
Wind: S 17 mph , 28 km/h
Temperature: 10°C
Wind Chill: 7°C
Dew Point: 10°C
Humidity: 100%
Barometer: 1027 hPa
Clouds: Overcast
Visibility: 6 miles , 10 km
Cloud details: Few Clouds 183 m
Overcast 732 m
2022/12/01 08:50 EGNS 010850Z 19015KT 9999 FEW006 OVC024 10/10 Q1027 TEMPO 4000 -DZ BKN006
EGPK - Prestwick(Civ/Na, United Kingdom
Distance from station: NE 74mi, 119km
Updated: 01/12/2022 08:50
Mostly cloudy
Mostly cloudy
space Wind from SSE
Wind: SSE 10 mph , 17 km/h
Temperature: 7°C
Wind Chill: 4°C
Dew Point: 6°C
Humidity: 93%
Barometer: 1026 hPa
Clouds: Mostly cloudy
Visibility: 6 miles , 10 km
Cloud details: Few Clouds 335 m
Mostly cloudy 457 m
2022/12/01 08:50 EGPK 010850Z 15009KT 9999 FEW011 BKN015 07/06 Q1026
 
EIDW - Dublin Airport, Ireland
Distance from station: SSW 87mi, 141km
Updated: 01/12/2022 09:00
Mostly cloudy
Mostly cloudy
space Wind from varies
Wind: varies 3 mph , 6 km/h
Temperature: 9°C
Dew Point: 6°C
Humidity: 82%
Barometer: 1027 hPa
Clouds: Mostly cloudy
Visibility: 6 miles , 10 km
Cloud details: Few Clouds 457 m
Mostly cloudy 1524 m
2022/12/01 09:00 EIDW 010900Z VRB03KT 9999 FEW015 BKN050 09/06 Q1027 NOSIG
EGPF - Glasgow Airport, United Kingdom
Distance from station: NNE 98mi, 158km
Updated: 01/12/2022 08:50
Mist, Overcast
Mist, Overcast
space Wind from ENE
Wind: ENE 3 mph , 6 km/h
Temperature: 6°C
Dew Point: 6°C
Humidity: 100%
Barometer: 1027 hPa
Summary: Mist
Clouds: Overcast
Visibility: 3 miles , 5 km
Cloud details: Mostly cloudy 183 m
Overcast 305 m
2022/12/01 08:50 EGPF 010850Z AUTO 06003KT 4600 BR BKN006 OVC010 06/06 Q1027